Time;durP1;ratioP1;P1;durP2;ratioP2;P2;SDS_P1;SDS_P2;PMS_P1;PMS_P2;Temp;Humidity;BMP_temperature;BMP_pressure;BME280_temperature;BME280_humidity;BME280_pressure;Samples;Min_cycle;Max_cycle;Signal;HPM_P1;HPM_P2
2024/04/02 00:00:26;;;;;;;;;;;;;;;;;;5013041;28;19924;-65
2024/04/02 00:02:52;;;;;;;;;;;;;;;;;;5012880;28;19921;-65
2024/04/02 00:05:18;;;;;;;;;;;;;;;;;;5013230;28;19909;-65
2024/04/02 00:07:44;;;;;;;;;;;;;;;;;;5013459;28;19917;-65
2024/04/02 00:10:10;;;;;;;;;;;;;;;;;;5013125;28;19910;-65
2024/04/02 00:12:36;;;;;;;;;;;;;;;;;;5013017;28;19916;-64
2024/04/02 00:15:05;;;;;;;;;;;;;;;;;;5013107;28;20268;-66
2024/04/02 00:17:31;;;;;;;;;;;;;;;;;;5012738;28;19944;-65
2024/04/02 00:19:57;;;;;;;;;;;;;;;;;;5013155;28;19989;-66
2024/04/02 00:22:23;;;;;;;;;;;;;;;;;;5012496;28;20031;-65
2024/04/02 00:24:49;;;;;;;;;;;;;;;;;;5012968;28;19952;-65
2024/04/02 00:27:14;;;;;;;;;;;;;;;;;;5012543;28;20295;-65
2024/04/02 00:29:40;;;;;;;;;;;;;;;;;;5012816;28;20000;-65
2024/04/02 00:32:06;;;;;;;;;;;;;;;;;;5012629;28;19909;-66
2024/04/02 00:34:32;;;;;;;;;;;;;;;;;;5012050;28;20017;-65
2024/04/02 00:36:58;;;;;;;;;;;;;;;;;;5012990;28;19936;-65
2024/04/02 00:39:24;;;;;;;;;;;;;;;;;;5012529;28;20000;-65
2024/04/02 00:41:50;;;;;;;;;;;;;;;;;;5012469;28;19918;-65
2024/04/02 00:44:15;;;;;;;;;;;;;;;;;;5012282;28;19919;-64
2024/04/02 00:46:41;;;;;;;;;;;;;;;;;;5012691;28;20449;-65
2024/04/02 00:49:07;;;;;;;;;;;;;;;;;;5012359;28;19935;-65
2024/04/02 00:51:33;;;;;;;;;;;;;;;;;;5011905;28;19914;-65
2024/04/02 00:53:59;;;;;;;;;;;;;;;;;;5012624;28;19910;-64
2024/04/02 00:56:25;;;;;;;;;;;;;;;;;;5012343;28;20384;-64
2024/04/02 00:58:50;;;;;;;;;;;;;;;;;;5012354;28;19914;-65
2024/04/02 01:01:16;;;;;;;;;;;;;;;;;;5011886;28;19916;-64
2024/04/02 01:03:42;;;;;;;;;;;;;;;;;;5012147;28;20442;-65
2024/04/02 01:06:08;;;;;;;;;;;;;;;;;;5012255;28;19968;-65
2024/04/02 01:08:34;;;;;;;;;;;;;;;;;;5011223;28;19910;-65
2024/04/02 01:11:00;;;;;;;;;;;;;;;;;;5011908;28;20382;-65
2024/04/02 01:13:26;;;;;;;;;;;;;;;;;;5012343;28;19921;-65
2024/04/02 01:15:52;;;;;;;;;;;;;;;;;;5012016;28;19910;-65
2024/04/02 01:18:18;;;;;;;;;;;;;;;;;;5011703;28;20328;-65
2024/04/02 01:20:43;;;;;;;;;;;;;;;;;;5011488;28;19959;-63
2024/04/02 01:23:09;;;;;;;;;;;;;;;;;;5011828;28;19909;-64
2024/04/02 01:25:35;;;;;;;;;;;;;;;;;;5011821;28;19940;-65
2024/04/02 01:28:01;;;;;;;;;;;;;;;;;;5011834;28;19975;-65
2024/04/02 01:30:27;;;;;;;;;;;;;;;;;;5011610;28;19910;-65
2024/04/02 01:32:53;;;;;;;;;;;;;;;;;;5011390;28;20004;-64
2024/04/02 01:35:19;;;;;;;;;;;;;;;;;;5011449;28;20269;-64
2024/04/02 01:37:45;;;;;;;;;;;;;;;;;;5011756;28;20004;-64
2024/04/02 01:40:11;;;;;;;;;;;;;;;;;;5011307;28;19920;-64
2024/04/02 01:42:36;;;;;;;;;;;;;;;;;;5011313;28;19956;-64
2024/04/02 01:45:03;;;;;;;;;;;;;;;;;;5011591;28;19913;-65
2024/04/02 01:47:29;;;;;;;;;;;;;;;;;;5011367;28;20425;-65
2024/04/02 01:49:54;;;;;;;;;;;;;;;;;;5011330;28;19913;-65
2024/04/02 01:52:20;;;;;;;;;;;;;;;;;;5011140;28;20003;-65
2024/04/02 01:54:46;;;;;;;;;;;;;;;;;;5011640;28;19916;-64
2024/04/02 01:57:12;;;;;;;;;;;;;;;;;;5020475;28;20075;-65
2024/04/02 01:59:38;;;;;;;;;;;;;;;;;;5017765;28;19914;-65
2024/04/02 02:02:04;;;;;;;;;;;;;;;;;;5011130;28;19914;-64
2024/04/02 02:04:30;;;;;;;;;;;;;;;;;;5011262;28;19909;-65
2024/04/02 02:06:55;;;;;;;;;;;;;;;;;;5011853;28;19909;-65
2024/04/02 02:09:21;;;;;;;;;;;;;;;;;;5011144;28;19909;-64
2024/04/02 02:11:47;;;;;;;;;;;;;;;;;;5010951;28;19909;-64
2024/04/02 02:14:14;;;;;;;;;;;;;;;;;;5011194;28;19910;-64
2024/04/02 02:16:39;;;;;;;;;;;;;;;;;;5011318;28;19909;-65
2024/04/02 02:19:05;;;;;;;;;;;;;;;;;;5011220;28;20046;-65
2024/04/02 02:21:31;;;;;;;;;;;;;;;;;;5011016;28;19917;-65
2024/04/02 02:23:57;;;;;;;;;;;;;;;;;;5011227;28;20329;-65
2024/04/02 02:26:23;;;;;;;;;;;;;;;;;;5011267;28;20008;-65
2024/04/02 02:28:49;;;;;;;;;;;;;;;;;;5011186;28;19932;-65
2024/04/02 02:31:15;;;;;;;;;;;;;;;;;;5010938;28;20371;-65
2024/04/02 02:33:41;;;;;;;;;;;;;;;;;;5011301;28;19914;-65
2024/04/02 02:36:07;;;;;;;;;;;;;;;;;;5010747;28;20044;-65
2024/04/02 02:38:33;;;;;;;;;;;;;;;;;;5009587;28;19949;-65
2024/04/02 02:40:58;;;;;;;;;;;;;;;;;;5010688;28;19964;-65
2024/04/02 02:43:24;;;;;;;;;;;;;;;;;;5010766;28;19913;-65
2024/04/02 02:45:50;;;;;;;;;;;;;;;;;;5011052;28;20376;-65
2024/04/02 02:48:16;;;;;;;;;;;;;;;;;;5010327;28;19910;-65
2024/04/02 02:50:42;;;;;;;;;;;;;;;;;;5016638;28;19910;-65
2024/04/02 02:53:08;;;;;;;;;;;;;;;;;;5014404;28;19920;-65
2024/04/02 02:55:33;;;;;;;;;;;;;;;;;;5014484;28;19909;-65
2024/04/02 02:57:59;;;;;;;;;;;;;;;;;;5014545;28;19910;-65
2024/04/02 03:00:25;;;;;;;;;;;;;;;;;;5014414;28;19967;-65
2024/04/02 03:02:51;;;;;;;;;;;;;;;;;;5014382;28;20303;-65
2024/04/02 03:05:17;;;;;;;;;;;;;;;;;;5014411;28;19916;-65
2024/04/02 03:07:43;;;;;;;;;;;;;;;;;;5014027;28;19913;-65
2024/04/02 03:10:09;;;;;;;;;;;;;;;;;;5014478;28;19921;-65
2024/04/02 03:12:34;;;;;;;;;;;;;;;;;;5012619;28;20331;-65
2024/04/02 03:15:00;;;;;;;;;;;;;;;;;;5014694;28;19910;-65
2024/04/02 03:17:26;;;;;;;;;;;;;;;;;;5014366;28;19914;-65
2024/04/02 03:19:52;;;;;;;;;;;;;;;;;;5014024;28;19914;-65
2024/04/02 03:22:18;;;;;;;;;;;;;;;;;;5014025;28;20350;-65
2024/04/02 03:24:44;;;;;;;;;;;;;;;;;;5013603;28;19920;-65
2024/04/02 03:27:10;;;;;;;;;;;;;;;;;;5013909;28;19910;-64
2024/04/02 03:29:36;;;;;;;;;;;;;;;;;;5013579;28;19996;-65
2024/04/02 03:32:01;;;;;;;;;;;;;;;;;;5013878;28;19977;-65
2024/04/02 03:34:27;;;;;;;;;;;;;;;;;;5014164;28;19917;-65
2024/04/02 03:36:53;;;;;;;;;;;;;;;;;;5013055;28;20360;-64
2024/04/02 03:39:19;;;;;;;;;;;;;;;;;;5013651;28;19921;-64
2024/04/02 03:41:45;;;;;;;;;;;;;;;;;;5012688;28;20380;-65
2024/04/02 03:44:12;;;;;;;;;;;;;;;;;;5013954;28;19914;-64
2024/04/02 03:46:38;;;;;;;;;;;;;;;;;;5013532;28;20003;-64
2024/04/02 03:49:04;;;;;;;;;;;;;;;;;;5013764;28;19913;-65
2024/04/02 03:51:30;;;;;;;;;;;;;;;;;;5013298;28;19910;-65
2024/04/02 03:53:56;;;;;;;;;;;;;;;;;;5013556;28;19916;-65
2024/04/02 03:56:22;;;;;;;;;;;;;;;;;;5013229;28;20240;-65
2024/04/02 03:58:48;;;;;;;;;;;;;;;;;;5013330;28;19909;-65
2024/04/02 04:01:14;;;;;;;;;;;;;;;;;;5012084;28;19909;-64
2024/04/02 04:03:39;;;;;;;;;;;;;;;;;;5023525;28;19909;-66
2024/04/02 04:06:05;;;;;;;;;;;;;;;;;;5015502;28;19952;-66
2024/04/02 04:08:31;;;;;;;;;;;;;;;;;;5018391;28;19910;-65
2024/04/02 04:10:57;;;;;;;;;;;;;;;;;;5018274;28;19913;-65
2024/04/02 04:13:23;;;;;;;;;;;;;;;;;;5013366;28;19948;-65
2024/04/02 04:15:49;;;;;;;;;;;;;;;;;;5018561;28;20394;-65
2024/04/02 04:18:15;;;;;;;;;;;;;;;;;;5017937;28;19913;-65
2024/04/02 04:20:41;;;;;;;;;;;;;;;;;;5010827;28;19917;-65
2024/04/02 04:23:06;;;;;;;;;;;;;;;;;;5020370;28;20287;-65
2024/04/02 04:25:32;;;;;;;;;;;;;;;;;;5015160;28;19913;-64
2024/04/02 04:27:58;;;;;;;;;;;;;;;;;;5022920;28;19910;-65
2024/04/02 04:30:24;;;;;;;;;;;;;;;;;;5017897;28;19909;-65
2024/04/02 04:32:50;;;;;;;;;;;;;;;;;;5017509;28;20317;-66
2024/04/02 04:35:16;;;;;;;;;;;;;;;;;;5014071;28;20013;-65
2024/04/02 04:37:42;;;;;;;;;;;;;;;;;;5013585;28;19956;-64
2024/04/02 04:40:07;;;;;;;;;;;;;;;;;;5020215;28;19924;-65
2024/04/02 04:42:33;;;;;;;;;;;;;;;;;;5012318;28;19910;-65
2024/04/02 04:44:59;;;;;;;;;;;;;;;;;;5012651;28;20004;-65
2024/04/02 04:47:25;;;;;;;;;;;;;;;;;;5012449;28;19960;-65
2024/04/02 04:49:51;;;;;;;;;;;;;;;;;;5013332;28;19933;-65
2024/04/02 04:52:17;;;;;;;;;;;;;;;;;;5016631;28;19927;-65
2024/04/02 04:54:43;;;;;;;;;;;;;;;;;;5012323;28;19914;-65
2024/04/02 04:57:09;;;;;;;;;;;;;;;;;;5012645;28;19959;-65
2024/04/02 04:59:35;;;;;;;;;;;;;;;;;;5008886;28;20392;-65
2024/04/02 05:02:00;;;;;;;;;;;;;;;;;;5012225;28;19916;-64
2024/04/02 05:04:26;;;;;;;;;;;;;;;;;;5012345;28;19920;-64
2024/04/02 05:06:52;;;;;;;;;;;;;;;;;;5012025;28;19979;-65
2024/04/02 05:09:18;;;;;;;;;;;;;;;;;;5011976;28;19943;-64
2024/04/02 05:11:44;;;;;;;;;;;;;;;;;;5011776;28;19965;-65
2024/04/02 05:14:10;;;;;;;;;;;;;;;;;;5012066;28;20288;-65
2024/04/02 05:16:37;;;;;;;;;;;;;;;;;;5012096;28;19910;-65
2024/04/02 05:19:03;;;;;;;;;;;;;;;;;;5011864;28;20394;-65
2024/04/02 05:21:29;;;;;;;;;;;;;;;;;;5008907;28;19922;-65
2024/04/02 05:23:55;;;;;;;;;;;;;;;;;;5013135;28;20396;-65
2024/04/02 05:26:21;;;;;;;;;;;;;;;;;;5012145;28;19910;-65
2024/04/02 05:28:47;;;;;;;;;;;;;;;;;;5011598;28;19909;-65
2024/04/02 05:31:14;;;;;;;;;;;;;;;;;;5011516;28;19909;-65
2024/04/02 05:33:40;;;;;;;;;;;;;;;;;;5011620;28;20343;-65
2024/04/02 05:36:06;;;;;;;;;;;;;;;;;;5011694;28;19922;-65
2024/04/02 05:38:32;;;;;;;;;;;;;;;;;;5011424;28;20013;-65
2024/04/02 05:40:58;;;;;;;;;;;;;;;;;;5011255;28;19979;-65
2024/04/02 05:43:26;;;;;;;;;;;;;;;;;;5010031;28;19909;-64
2024/04/02 05:45:52;;;;;;;;;;;;;;;;;;5011617;28;20004;-65
2024/04/02 05:48:18;;;;;;;;;;;;;;;;;;5011525;28;20011;-65
2024/04/02 05:50:44;;;;;;;;;;;;;;;;;;5009874;28;20381;-62
2024/04/02 05:53:10;;;;;;;;;;;;;;;;;;5014730;28;19913;-64
2024/04/02 05:55:36;;;;;;;;;;;;;;;;;;5011473;28;20414;-65
2024/04/02 05:58:02;;;;;;;;;;;;;;;;;;5011082;28;19935;-65
2024/04/02 06:00:30;;;;;;;;;;;;;;;;;;5011320;28;19972;-64
2024/04/02 06:02:56;;;;;;;;;;;;;;;;;;5011196;28;19956;-65
2024/04/02 06:05:22;;;;;;;;;;;;;;;;;;5011083;28;19918;-65
2024/04/02 06:07:49;;;;;;;;;;;;;;;;;;5011190;28;19968;-64
2024/04/02 06:10:15;;;;;;;;;;;;;;;;;;5019057;28;19992;-65
2024/04/02 06:12:45;;;;;;;;;;;;;;;;;;5011195;28;20412;-63
2024/04/02 06:15:11;;;;;;;;;;;;;;;;;;5011155;28;20016;-65
2024/04/02 06:17:36;;;;;;;;;;;;;;;;;;5011190;28;19996;-65
2024/04/02 06:20:02;;;;;;;;;;;;;;;;;;5010816;28;19913;-64
2024/04/02 06:22:30;;;;;;;;;;;;;;;;;;5011263;28;19988;-65
2024/04/02 06:24:56;;;;;;;;;;;;;;;;;;5018066;28;19914;-65
2024/04/02 06:27:22;;;;;;;;;;;;;;;;;;5014997;28;19909;-65
2024/04/02 06:29:48;;;;;;;;;;;;;;;;;;5017642;28;19956;-64
2024/04/02 06:32:14;;;;;;;;;;;;;;;;;;5014768;28;19928;-65
2024/04/02 06:34:39;;;;;;;;;;;;;;;;;;5014905;28;19910;-65
2024/04/02 06:37:05;;;;;;;;;;;;;;;;;;5015025;28;20000;-64
2024/04/02 06:39:31;;;;;;;;;;;;;;;;;;5014695;28;19913;-65
2024/04/02 06:41:57;;;;;;;;;;;;;;;;;;5014654;28;19917;-65
2024/04/02 06:44:23;;;;;;;;;;;;;;;;;;5014918;28;19941;-65
2024/04/02 06:46:49;;;;;;;;;;;;;;;;;;5014535;28;19913;-65
2024/04/02 06:49:15;;;;;;;;;;;;;;;;;;5014862;28;19921;-65
2024/04/02 06:51:41;;;;;;;;;;;;;;;;;;5014893;28;19916;-65
2024/04/02 06:54:07;;;;;;;;;;;;;;;;;;5014794;28;19910;-65
2024/04/02 06:56:32;;;;;;;;;;;;;;;;;;5006261;28;20275;-65
2024/04/02 06:58:58;;;;;;;;;;;;;;;;;;5012932;28;19922;-65
2024/04/02 07:01:24;;;;;;;;;;;;;;;;;;5005327;28;19963;-65
2024/04/02 07:03:50;;;;;;;;;;;;;;;;;;5009253;28;19913;-65
2024/04/02 07:06:16;;;;;;;;;;;;;;;;;;5009150;28;19914;-65
2024/04/02 07:08:46;;;;;;;;;;;;;;;;;;5009095;28;19914;-65
2024/04/02 07:11:12;;;;;;;;;;;;;;;;;;5007133;28;19917;-65
2024/04/02 07:13:38;;;;;;;;;;;;;;;;;;5014599;28;19910;-65
2024/04/02 07:16:03;;;;;;;;;;;;;;;;;;5014260;28;19909;-65
2024/04/02 07:18:36;;;;;;;;;;;;;;;;;;5014322;28;20304;-65
2024/04/02 07:21:01;;;;;;;;;;;;;;;;;;5012623;28;19917;-65
2024/04/02 07:23:27;;;;;;;;;;;;;;;;;;5007435;28;19921;-65
2024/04/02 07:25:53;;;;;;;;;;;;;;;;;;5013589;28;19957;-65
2024/04/02 07:28:19;;;;;;;;;;;;;;;;;;5010891;28;20269;-66
2024/04/02 07:30:45;;;;;;;;;;;;;;;;;;5019480;28;19913;-64
2024/04/02 07:33:11;;;;;;;;;;;;;;;;;;5013804;28;20391;-66
2024/04/02 07:35:38;;;;;;;;;;;;;;;;;;5013165;28;19928;-66
2024/04/02 07:38:03;;;;;;;;;;;;;;;;;;5013581;28;19915;-65
2024/04/02 07:40:30;;;;;;;;;;;;;;;;;;5013441;28;19937;-66
2024/04/02 07:42:57;;;;;;;;;;;;;;;;;;5013064;28;19916;-65
2024/04/02 07:45:23;;;;;;;;;;;;;;;;;;5013382;28;19909;-65
2024/04/02 07:47:49;;;;;;;;;;;;;;;;;;5013595;28;19919;-65
2024/04/02 07:50:15;;;;;;;;;;;;;;;;;;5013447;28;20264;-65
2024/04/02 07:52:41;;;;;;;;;;;;;;;;;;5018244;28;19944;-65
2024/04/02 07:55:07;;;;;;;;;;;;;;;;;;5023273;28;19916;-65
2024/04/02 07:57:33;;;;;;;;;;;;;;;;;;5021978;28;19909;-66
2024/04/02 07:59:58;;;;;;;;;;;;;;;;;;5026103;28;20397;-65
2024/04/02 08:02:25;;;;;;;;;;;;;;;;;;5017128;28;19910;-65
2024/04/02 08:04:52;;;;;;;;;;;;;;;;;;5015401;28;19909;-62
2024/04/02 08:07:18;;;;;;;;;;;;;;;;;;5018839;28;19971;-65
2024/04/02 08:09:44;;;;;;;;;;;;;;;;;;5014676;28;20372;-65
2024/04/02 08:12:10;;;;;;;;;;;;;;;;;;5018157;28;19924;-66
2024/04/02 08:14:36;;;;;;;;;;;;;;;;;;5013372;28;19909;-65
2024/04/02 08:17:03;;;;;;;;;;;;;;;;;;5017389;28;19910;-65
2024/04/02 08:19:29;;;;;;;;;;;;;;;;;;5016444;28;19967;-65
2024/04/02 08:21:54;;;;;;;;;;;;;;;;;;5013650;28;19948;-65
2024/04/02 08:24:20;;;;;;;;;;;;;;;;;;5014913;28;19925;-65
2024/04/02 08:26:46;;;;;;;;;;;;;;;;;;5015238;28;19948;-66
2024/04/02 08:29:12;;;;;;;;;;;;;;;;;;5015082;28;19910;-65
2024/04/02 08:31:38;;;;;;;;;;;;;;;;;;5014864;28;19919;-65
2024/04/02 08:34:04;;;;;;;;;;;;;;;;;;5015240;28;19964;-65
2024/04/02 08:36:29;;;;;;;;;;;;;;;;;;5016292;28;19932;-65
2024/04/02 08:38:55;;;;;;;;;;;;;;;;;;5017747;28;19984;-65
2024/04/02 08:41:21;;;;;;;;;;;;;;;;;;5014665;28;19913;-65
2024/04/02 08:43:47;;;;;;;;;;;;;;;;;;5012498;28;19916;-66
2024/04/02 08:46:13;;;;;;;;;;;;;;;;;;5011841;28;20000;-65
2024/04/02 08:48:39;;;;;;;;;;;;;;;;;;5012501;28;19931;-66
2024/04/02 08:51:05;;;;;;;;;;;;;;;;;;5012216;28;20154;-65
2024/04/02 08:53:31;;;;;;;;;;;;;;;;;;5012303;28;19909;-66
2024/04/02 08:55:59;;;;;;;;;;;;;;;;;;5012389;28;19909;-66
2024/04/02 08:58:25;;;;;;;;;;;;;;;;;;5011987;28;19997;-65
2024/04/02 09:00:51;;;;;;;;;;;;;;;;;;5011828;28;20000;-66
2024/04/02 09:03:16;;;;;;;;;;;;;;;;;;5012452;28;19910;-66
2024/04/02 09:05:42;;;;;;;;;;;;;;;;;;5012350;28;19910;-66
2024/04/02 09:08:09;;;;;;;;;;;;;;;;;;5012597;28;20395;-66
2024/04/02 09:10:35;;;;;;;;;;;;;;;;;;5006236;28;19921;-65
2024/04/02 09:13:01;;;;;;;;;;;;;;;;;;5011844;28;20351;-66
2024/04/02 09:15:26;;;;;;;;;;;;;;;;;;5012072;28;19924;-66
2024/04/02 09:17:52;;;;;;;;;;;;;;;;;;5012303;28;19910;-66
2024/04/02 09:20:19;;;;;;;;;;;;;;;;;;5011876;28;19914;-65
2024/04/02 09:22:44;;;;;;;;;;;;;;;;;;5011942;28;19914;-65
2024/04/02 09:25:10;;;;;;;;;;;;;;;;;;5011868;28;20430;-66
2024/04/02 09:27:36;;;;;;;;;;;;;;;;;;5011915;28;19932;-66
2024/04/02 09:30:02;;;;;;;;;;;;;;;;;;5011780;28;19910;-64
2024/04/02 09:32:28;;;;;;;;;;;;;;;;;;5011566;28;19975;-65
2024/04/02 09:34:54;;;;;;;;;;;;;;;;;;5011669;28;19917;-65
2024/04/02 09:37:20;;;;;;;;;;;;;;;;;;5011762;28;19914;-66
2024/04/02 09:39:45;;;;;;;;;;;;;;;;;;5011724;28;19917;-66
2024/04/02 09:42:11;;;;;;;;;;;;;;;;;;5010958;28;19909;-65
2024/04/02 09:44:37;;;;;;;;;;;;;;;;;;5011790;28;19909;-65
2024/04/02 09:47:03;;;;;;;;;;;;;;;;;;5011289;28;20004;-65
2024/04/02 09:49:29;;;;;;;;;;;;;;;;;;5023432;28;19971;-65
2024/04/02 09:51:55;;;;;;;;;;;;;;;;;;5011283;28;20091;-65
2024/04/02 09:54:20;;;;;;;;;;;;;;;;;;5011356;28;20004;-66
2024/04/02 09:56:46;;;;;;;;;;;;;;;;;;5014918;28;19909;-66
2024/04/02 09:59:12;;;;;;;;;;;;;;;;;;5011609;28;19914;-65
2024/04/02 10:01:38;;;;;;;;;;;;;;;;;;5012752;28;19909;-66
2024/04/02 10:04:09;;;;;;;;;;;;;;;;;;5010963;28;20300;-65
2024/04/02 10:06:35;;;;;;;;;;;;;;;;;;5012559;28;20172;-66
2024/04/02 10:09:01;;;;;;;;;;;;;;;;;;5012899;28;19920;-65
2024/04/02 10:11:27;;;;;;;;;;;;;;;;;;5012424;28;19956;-66
2024/04/02 10:13:52;;;;;;;;;;;;;;;;;;5011540;28;20364;-65
2024/04/02 10:16:18;;;;;;;;;;;;;;;;;;5012657;28;19961;-65
2024/04/02 10:18:44;;;;;;;;;;;;;;;;;;5014228;28;19921;-66
2024/04/02 10:21:10;;;;;;;;;;;;;;;;;;5014856;28;20072;-65
2024/04/02 10:23:36;;;;;;;;;;;;;;;;;;5013985;28;20004;-65
2024/04/02 10:26:02;;;;;;;;;;;;;;;;;;5014278;28;19956;-66
2024/04/02 10:28:28;;;;;;;;;;;;;;;;;;5014768;28;19916;-65
2024/04/02 10:30:54;;;;;;;;;;;;;;;;;;5013703;28;19910;-65
2024/04/02 10:33:20;;;;;;;;;;;;;;;;;;5015037;28;19917;-65
2024/04/02 10:35:46;;;;;;;;;;;;;;;;;;5017350;28;20359;-65
2024/04/02 10:38:11;;;;;;;;;;;;;;;;;;5024465;28;19963;-66
2024/04/02 10:40:38;;;;;;;;;;;;;;;;;;5025007;28;19913;-65
2024/04/02 10:43:04;;;;;;;;;;;;;;;;;;5015905;28;19913;-65
2024/04/02 10:45:30;;;;;;;;;;;;;;;;;;5013316;28;20330;-66
2024/04/02 10:47:56;;;;;;;;;;;;;;;;;;5013592;28;20303;-66
2024/04/02 10:50:22;;;;;;;;;;;;;;;;;;5010713;28;19972;-66
2024/04/02 10:52:48;;;;;;;;;;;;;;;;;;5010957;28;20296;-65
2024/04/02 10:55:14;;;;;;;;;;;;;;;;;;5011235;28;20001;-66
2024/04/02 10:57:40;;;;;;;;;;;;;;;;;;5011328;28;19910;-65
2024/04/02 11:00:06;;;;;;;;;;;;;;;;;;5011127;28;19963;-65
2024/04/02 11:02:31;;;;;;;;;;;;;;;;;;5010851;28;19916;-64
2024/04/02 11:04:58;;;;;;;;;;;;;;;;;;5011007;28;19913;-65
2024/04/02 11:07:25;;;;;;;;;;;;;;;;;;5011370;28;19921;-65
2024/04/02 11:09:50;;;;;;;;;;;;;;;;;;5012114;28;19909;-66
2024/04/02 11:12:16;;;;;;;;;;;;;;;;;;5011501;28;19921;-65
2024/04/02 11:14:42;;;;;;;;;;;;;;;;;;5008799;28;19988;-65
2024/04/02 11:17:08;;;;;;;;;;;;;;;;;;5014281;28;19910;-65
2024/04/02 11:19:34;;;;;;;;;;;;;;;;;;5014208;28;19940;-65
2024/04/02 11:27:30;;;;;;;;;;;;;;;;;;5014278;28;19912;-65
2024/04/02 11:29:56;;;;;;;;;;;;;;;;;;5014236;28;19928;-65
2024/04/02 11:32:22;;;;;;;;;;;;;;;;;;5013718;28;20367;-65
2024/04/02 11:34:48;;;;;;;;;;;;;;;;;;5013564;28;20282;-66
2024/04/02 11:37:13;;;;;;;;;;;;;;;;;;5013878;28;19935;-65
2024/04/02 11:39:39;;;;;;;;;;;;;;;;;;5013596;28;20002;-65
2024/04/02 11:42:05;;;;;;;;;;;;;;;;;;5013493;28;19913;-65
2024/04/02 11:44:31;;;;;;;;;;;;;;;;;;5013875;28;20291;-65
2024/04/02 11:46:57;;;;;;;;;;;;;;;;;;5013493;28;20295;-65
2024/04/02 11:49:23;;;;;;;;;;;;;;;;;;5013353;28;19910;-65
2024/04/02 11:51:49;;;;;;;;;;;;;;;;;;5013609;28;19910;-65
2024/04/02 11:54:14;;;;;;;;;;;;;;;;;;5011418;28;19913;-64
2024/04/02 12:02:09;;;;;;;;;;;;;;;;;;5013391;28;19933;-65
2024/04/02 12:04:35;;;;;;;;;;;;;;;;;;5006245;28;20331;-65
2024/04/02 12:07:01;;;;;;;;;;;;;;;;;;5014075;28;19992;-66
2024/04/02 12:09:27;;;;;;;;;;;;;;;;;;5013338;28;19925;-65
2024/04/02 12:11:53;;;;;;;;;;;;;;;;;;5013734;28;19967;-66
2024/04/02 12:14:19;;;;;;;;;;;;;;;;;;5014017;28;19909;-67
2024/04/02 12:16:45;;;;;;;;;;;;;;;;;;5013783;28;19910;-65
2024/04/02 12:19:11;;;;;;;;;;;;;;;;;;5013329;28;19924;-65
2024/04/02 12:21:36;;;;;;;;;;;;;;;;;;5012597;28;20419;-66
2024/04/02 12:24:02;;;;;;;;;;;;;;;;;;5013556;28;20085;-65
2024/04/02 12:26:28;;;;;;;;;;;;;;;;;;5013389;28;20059;-64
2024/04/02 12:28:54;;;;;;;;;;;;;;;;;;5013069;28;19917;-65
2024/04/02 12:31:20;;;;;;;;;;;;;;;;;;5013406;28;20438;-65
2024/04/02 12:33:46;;;;;;;;;;;;;;;;;;5013260;28;19913;-66
2024/04/02 12:36:12;;;;;;;;;;;;;;;;;;5013234;28;20375;-65
2024/04/02 12:38:37;;;;;;;;;;;;;;;;;;5013059;28;19988;-65
2024/04/02 12:41:03;;;;;;;;;;;;;;;;;;5012838;28;19913;-65
2024/04/02 12:43:29;;;;;;;;;;;;;;;;;;5012344;28;19920;-65
2024/04/02 12:45:55;;;;;;;;;;;;;;;;;;5012971;28;20470;-65
2024/04/02 12:48:21;;;;;;;;;;;;;;;;;;5012755;28;20003;-65
2024/04/02 12:50:47;;;;;;;;;;;;;;;;;;5012318;28;19913;-64
2024/04/02 12:53:13;;;;;;;;;;;;;;;;;;5020995;28;19909;-66
2024/04/02 12:55:39;;;;;;;;;;;;;;;;;;5024485;28;19913;-65
2024/04/02 12:58:05;;;;;;;;;;;;;;;;;;5025210;28;19916;-66
2024/04/02 13:00:30;;;;;;;;;;;;;;;;;;5012021;28;20854;-65
2024/04/02 13:02:56;;;;;;;;;;;;;;;;;;5012091;28;19992;-65
2024/04/02 13:05:22;;;;;;;;;;;;;;;;;;5012102;28;20295;-64
2024/04/02 13:07:48;;;;;;;;;;;;;;;;;;5017230;28;19917;-65
2024/04/02 13:10:14;;;;;;;;;;;;;;;;;;5030931;28;19917;-66
2024/04/02 13:12:40;;;;;;;;;;;;;;;;;;5015459;28;19909;-66
2024/04/02 13:15:06;;;;;;;;;;;;;;;;;;5017237;28;19949;-66
2024/04/02 13:17:31;;;;;;;;;;;;;;;;;;5019953;28;19917;-65
2024/04/02 13:19:57;;;;;;;;;;;;;;;;;;5013839;28;19940;-66
2024/04/02 13:22:23;;;;;;;;;;;;;;;;;;5020742;28;19910;-65
2024/04/02 13:24:49;;;;;;;;;;;;;;;;;;5037775;28;20310;-66
2024/04/02 13:27:15;;;;;;;;;;;;;;;;;;5029614;28;19920;-66
2024/04/02 13:29:41;;;;;;;;;;;;;;;;;;5023460;28;19951;-65
2024/04/02 13:32:07;;;;;;;;;;;;;;;;;;5023244;28;19978;-66
2024/04/02 13:34:32;;;;;;;;;;;;;;;;;;5027396;28;19932;-65
2024/04/02 13:37:01;;;;;;;;;;;;;;;;;;5025911;28;19913;-65
2024/04/02 13:39:27;;;;;;;;;;;;;;;;;;5014577;28;20016;-66
2024/04/02 13:41:53;;;;;;;;;;;;;;;;;;5030414;28;20004;-66
2024/04/02 13:44:19;;;;;;;;;;;;;;;;;;5021759;28;19916;-65
2024/04/02 13:46:45;;;;;;;;;;;;;;;;;;5015784;28;19996;-65
2024/04/02 13:49:11;;;;;;;;;;;;;;;;;;5015978;28;19910;-67
2024/04/02 13:51:36;;;;;;;;;;;;;;;;;;5019001;28;19944;-66
2024/04/02 13:54:03;;;;;;;;;;;;;;;;;;5025613;28;19909;-66
2024/04/02 13:56:28;;;;;;;;;;;;;;;;;;5021667;28;19909;-66
2024/04/02 13:58:54;;;;;;;;;;;;;;;;;;5030076;28;19915;-67
2024/04/02 14:01:20;;;;;;;;;;;;;;;;;;5013516;28;20426;-66
2024/04/02 14:03:46;;;;;;;;;;;;;;;;;;5020419;28;20303;-66
2024/04/02 14:06:13;;;;;;;;;;;;;;;;;;5022275;28;19910;-66
2024/04/02 14:08:42;;;;;;;;;;;;;;;;;;5018425;28;19914;-66
2024/04/02 14:11:08;;;;;;;;;;;;;;;;;;5018811;28;20303;-66
2024/04/02 14:13:34;;;;;;;;;;;;;;;;;;5011258;28;19909;-65
2024/04/02 14:16:00;;;;;;;;;;;;;;;;;;5011722;28;19910;-65
2024/04/02 14:18:26;;;;;;;;;;;;;;;;;;5011231;28;19920;-66
2024/04/02 14:20:52;;;;;;;;;;;;;;;;;;5011229;28;19936;-66
2024/04/02 14:23:18;;;;;;;;;;;;;;;;;;5011153;28;20001;-66
2024/04/02 14:25:44;;;;;;;;;;;;;;;;;;5011385;28;19910;-66
2024/04/02 14:28:10;;;;;;;;;;;;;;;;;;5011293;28;19964;-66
2024/04/02 14:30:36;;;;;;;;;;;;;;;;;;5010336;28;20350;-66
2024/04/02 14:33:02;;;;;;;;;;;;;;;;;;5011239;28;19928;-67
2024/04/02 14:35:27;;;;;;;;;;;;;;;;;;5010940;28;19917;-66
2024/04/02 14:37:53;;;;;;;;;;;;;;;;;;5011156;28;20371;-66
2024/04/02 14:40:19;;;;;;;;;;;;;;;;;;5010583;28;19917;-66
2024/04/02 14:42:45;;;;;;;;;;;;;;;;;;5010988;28;19913;-65
2024/04/02 14:45:11;;;;;;;;;;;;;;;;;;5012671;28;19909;-66
2024/04/02 14:47:37;;;;;;;;;;;;;;;;;;5014887;28;20434;-66
2024/04/02 14:50:04;;;;;;;;;;;;;;;;;;5014772;28;19996;-66
2024/04/02 14:52:29;;;;;;;;;;;;;;;;;;5014643;28;19924;-66
2024/04/02 14:54:55;;;;;;;;;;;;;;;;;;5014902;28;19913;-66
2024/04/02 14:57:21;;;;;;;;;;;;;;;;;;5014639;28;19921;-65
2024/04/02 14:59:49;;;;;;;;;;;;;;;;;;5014562;28;20424;-66
2024/04/02 15:02:17;;;;;;;;;;;;;;;;;;5014719;28;20440;-66
2024/04/02 15:04:45;;;;;;;;;;;;;;;;;;5015045;28;20363;-66
2024/04/02 15:07:10;;;;;;;;;;;;;;;;;;5014775;28;19942;-67
2024/04/02 15:09:37;;;;;;;;;;;;;;;;;;5014345;28;19910;-66
2024/04/02 15:12:03;;;;;;;;;;;;;;;;;;5014423;28;19917;-66
2024/04/02 15:14:29;;;;;;;;;;;;;;;;;;5014093;28;20000;-66
2024/04/02 15:16:55;;;;;;;;;;;;;;;;;;5014625;28;20416;-66
2024/04/02 15:19:21;;;;;;;;;;;;;;;;;;5014667;28;19936;-66
2024/04/02 15:21:46;;;;;;;;;;;;;;;;;;5013970;28;19916;-66
2024/04/02 15:24:12;;;;;;;;;;;;;;;;;;5014186;28;19909;-65
2024/04/02 15:26:38;;;;;;;;;;;;;;;;;;5014301;28;20434;-66
2024/04/02 15:29:05;;;;;;;;;;;;;;;;;;5014008;28;19925;-66
2024/04/02 15:31:31;;;;;;;;;;;;;;;;;;5013945;28;19928;-66
2024/04/02 15:33:57;;;;;;;;;;;;;;;;;;5014129;28;19913;-66
2024/04/02 15:36:23;;;;;;;;;;;;;;;;;;5012727;28;20008;-65
2024/04/02 15:38:50;;;;;;;;;;;;;;;;;;5014006;28;19914;-66
2024/04/02 15:41:16;;;;;;;;;;;;;;;;;;5013778;28;19917;-66
2024/04/02 15:43:42;;;;;;;;;;;;;;;;;;5014002;28;19916;-66
2024/04/02 15:46:08;;;;;;;;;;;;;;;;;;5013392;28;19921;-66
2024/04/02 15:48:34;;;;;;;;;;;;;;;;;;5013806;28;19963;-66
2024/04/02 15:51:00;;;;;;;;;;;;;;;;;;5013535;28;19960;-66
2024/04/02 15:53:25;;;;;;;;;;;;;;;;;;5013854;28;19913;-66
2024/04/02 15:55:51;;;;;;;;;;;;;;;;;;5013960;28;19910;-66
2024/04/02 15:58:20;;;;;;;;;;;;;;;;;;5013696;28;20059;-66
2024/04/02 16:00:46;;;;;;;;;;;;;;;;;;5013691;28;19921;-66
2024/04/02 16:03:12;;;;;;;;;;;;;;;;;;5013220;28;19917;-65
2024/04/02 16:05:38;;;;;;;;;;;;;;;;;;5013139;28;19935;-65
2024/04/02 16:08:03;;;;;;;;;;;;;;;;;;5013543;28;19999;-65
2024/04/02 16:10:29;;;;;;;;;;;;;;;;;;5013326;28;19917;-66
2024/04/02 16:12:55;;;;;;;;;;;;;;;;;;5014790;28;19913;-65
2024/04/02 16:15:22;;;;;;;;;;;;;;;;;;5025363;28;19910;-65
2024/04/02 16:17:47;;;;;;;;;;;;;;;;;;5013043;28;19953;-65
2024/04/02 16:20:13;;;;;;;;;;;;;;;;;;5012738;28;19960;-65
2024/04/02 16:22:39;;;;;;;;;;;;;;;;;;5012963;28;19914;-66
2024/04/02 16:25:05;;;;;;;;;;;;;;;;;;5013169;28;19909;-66
2024/04/02 16:27:31;;;;;;;;;;;;;;;;;;5013014;28;20161;-65
2024/04/02 16:29:57;;;;;;;;;;;;;;;;;;5013019;28;19909;-66
2024/04/02 16:32:22;;;;;;;;;;;;;;;;;;5018162;28;19913;-66
2024/04/02 16:34:48;;;;;;;;;;;;;;;;;;5027008;28;20379;-66
2024/04/02 16:37:14;;;;;;;;;;;;;;;;;;5028381;28;20048;-66
2024/04/02 16:39:40;;;;;;;;;;;;;;;;;;5031134;28;19981;-66
2024/04/02 16:42:07;;;;;;;;;;;;;;;;;;5035370;28;20046;-66
2024/04/02 16:44:33;;;;;;;;;;;;;;;;;;5025488;28;20003;-66
2024/04/02 16:46:59;;;;;;;;;;;;;;;;;;5028045;28;20234;-66